createdAt,value
2023-06-29T00:00:25.428Z,16.42
2023-06-29T00:01:25.526Z,16.46
2023-06-29T00:02:25.419Z,16.48
2023-06-29T00:03:25.387Z,16.50
2023-06-29T00:06:25.388Z,16.56
2023-06-29T00:07:25.511Z,16.57
2023-06-29T00:08:25.425Z,16.58
2023-06-29T00:10:25.432Z,16.64
2023-06-29T00:11:25.434Z,16.65
2023-06-29T00:12:25.283Z,16.68
2023-06-29T00:13:25.437Z,16.69
2023-06-29T00:15:25.381Z,16.71
2023-06-29T00:16:25.420Z,16.71
2023-06-29T00:17:25.511Z,16.71
2023-06-29T00:18:25.414Z,16.70
2023-06-29T00:20:25.473Z,16.69
2023-06-29T00:21:25.236Z,16.69
2023-06-29T00:22:25.425Z,16.68
2023-06-29T00:23:25.456Z,16.68
2023-06-29T00:25:25.354Z,16.66
2023-06-29T00:26:25.440Z,16.65
2023-06-29T00:27:25.445Z,16.65
2023-06-29T00:28:25.462Z,16.67
2023-06-29T00:30:25.460Z,16.68
2023-06-29T00:31:25.788Z,16.69
2023-06-29T00:32:25.420Z,16.68
2023-06-29T00:33:25.450Z,16.69
2023-06-29T00:35:25.451Z,16.67
2023-06-29T00:36:25.470Z,16.65
2023-06-29T00:37:25.485Z,16.64
2023-06-29T00:38:25.438Z,16.64
2023-06-29T00:40:25.257Z,16.65
2023-06-29T00:41:25.454Z,16.68
2023-06-29T00:42:25.457Z,16.69
2023-06-29T00:43:25.411Z,16.71
2023-06-29T00:46:25.503Z,16.70
2023-06-29T00:47:25.513Z,16.68
2023-06-29T00:48:25.474Z,16.69
2023-06-29T00:49:25.486Z,16.66
2023-06-29T00:51:25.475Z,16.63
2023-06-29T00:52:25.432Z,16.60
2023-06-29T00:53:25.446Z,16.56
2023-06-29T00:54:25.481Z,16.51
2023-06-29T00:56:25.473Z,16.40
2023-06-29T00:57:25.467Z,16.36
2023-06-29T00:58:25.442Z,16.34
2023-06-29T00:59:25.442Z,16.31
2023-06-29T01:02:25.569Z,16.24
2023-06-29T01:03:25.633Z,16.23
2023-06-29T01:04:25.478Z,16.22
2023-06-29T01:07:25.566Z,16.19
2023-06-29T01:08:25.486Z,16.19
2023-06-29T01:09:25.470Z,16.18
2023-06-29T01:12:25.483Z,16.15
2023-06-29T01:13:25.511Z,16.14
2023-06-29T01:14:25.473Z,16.10
2023-06-29T01:17:25.565Z,16.05
2023-06-29T01:18:25.331Z,16.04
2023-06-29T01:19:25.430Z,16.05
2023-06-29T01:20:25.473Z,16.04
2023-06-29T01:22:25.484Z,16.04
2023-06-29T01:23:25.493Z,16.03
2023-06-29T01:24:25.404Z,16.02
2023-06-29T01:25:25.519Z,16.00
2023-06-29T01:27:25.290Z,15.95
2023-06-29T01:28:25.529Z,15.91
2023-06-29T01:29:25.544Z,15.87
2023-06-29T01:30:25.529Z,15.83
2023-06-29T01:32:25.325Z,15.76
2023-06-29T01:33:25.459Z,15.73
2023-06-29T01:34:25.479Z,15.71
2023-06-29T01:35:25.492Z,15.68
2023-06-29T01:37:25.476Z,15.65
2023-06-29T01:38:25.540Z,15.64
2023-06-29T01:39:25.552Z,15.63
2023-06-29T01:40:25.489Z,15.63
2023-06-29T01:42:25.494Z,15.63
2023-06-29T01:43:25.508Z,15.60
2023-06-29T01:44:25.502Z,15.59
2023-06-29T01:45:25.501Z,15.58
2023-06-29T01:47:25.561Z,15.56
2023-06-29T01:48:25.524Z,15.55
2023-06-29T01:49:25.551Z,15.52
2023-06-29T01:50:25.537Z,15.52
2023-06-29T01:52:25.537Z,15.46
2023-06-29T01:53:25.546Z,15.43
2023-06-29T01:54:25.588Z,15.42
2023-06-29T01:55:25.517Z,15.44
2023-06-29T01:57:25.338Z,15.39
2023-06-29T01:58:25.527Z,15.37
2023-06-29T01:59:25.378Z,15.34
2023-06-29T02:00:25.501Z,15.30
2023-06-29T02:02:25.546Z,15.29
2023-06-29T02:03:25.603Z,15.28
2023-06-29T02:04:25.510Z,15.25
2023-06-29T02:05:25.551Z,15.22
2023-06-29T02:08:25.529Z,15.14
2023-06-29T02:09:25.521Z,15.10
2023-06-29T02:10:25.566Z,15.09
2023-06-29T02:11:25.557Z,15.06
2023-06-29T02:13:25.356Z,15.06
2023-06-29T02:14:25.363Z,15.04
2023-06-29T02:15:25.531Z,15.05
2023-06-29T02:16:25.679Z,15.05
2023-06-29T02:19:25.575Z,15.03
2023-06-29T02:20:25.595Z,15.02
2023-06-29T02:21:25.633Z,15.00
2023-06-29T02:22:25.561Z,14.95
2023-06-29T02:25:25.562Z,14.89
2023-06-29T02:26:25.562Z,14.88
2023-06-29T02:27:25.558Z,14.88
2023-06-29T02:28:25.632Z,14.88
2023-06-29T02:31:25.584Z,14.82
2023-06-29T02:32:25.569Z,14.81
2023-06-29T02:33:25.560Z,14.81
2023-06-29T02:34:25.567Z,14.79
2023-06-29T02:36:25.565Z,14.71
2023-06-29T02:37:25.381Z,14.69
2023-06-29T02:38:25.559Z,14.66
2023-06-29T02:39:25.571Z,14.66
2023-06-29T02:41:25.638Z,14.67
2023-06-29T02:42:25.572Z,14.66
2023-06-29T02:43:25.381Z,14.65
2023-06-29T02:44:25.580Z,14.65
2023-06-29T02:47:25.634Z,14.62
2023-06-29T02:48:25.552Z,14.60
2023-06-29T02:49:25.572Z,14.58
2023-06-29T02:50:25.639Z,14.61
2023-06-29T02:52:25.589Z,14.62
2023-06-29T02:53:25.560Z,14.63
2023-06-29T02:54:25.582Z,14.61
2023-06-29T02:55:25.632Z,14.63
2023-06-29T02:57:25.579Z,14.60
2023-06-29T02:58:25.641Z,14.58
2023-06-29T02:59:25.571Z,14.56
2023-06-29T03:00:25.604Z,14.57
2023-06-29T03:02:25.628Z,14.52
2023-06-29T03:03:25.721Z,14.50
2023-06-29T03:04:25.580Z,14.47
2023-06-29T03:05:25.603Z,14.46
2023-06-29T03:07:25.646Z,14.43
2023-06-29T03:08:25.617Z,14.43
2023-06-29T03:09:25.647Z,14.42
2023-06-29T03:10:25.669Z,14.43
2023-06-29T03:12:25.653Z,14.44
2023-06-29T03:13:25.630Z,14.45
2023-06-29T03:14:25.620Z,14.45
2023-06-29T03:15:25.606Z,14.47
2023-06-29T03:18:25.486Z,14.46
2023-06-29T03:19:25.657Z,14.46
2023-06-29T03:20:25.688Z,14.46
2023-06-29T03:22:25.645Z,14.50
2023-06-29T03:23:25.651Z,14.49
2023-06-29T03:24:25.448Z,14.45
2023-06-29T03:25:25.619Z,14.42
2023-06-29T03:27:25.611Z,14.37
2023-06-29T03:28:25.665Z,14.38
2023-06-29T03:29:25.645Z,14.36
2023-06-29T03:30:25.640Z,14.34
2023-06-29T03:33:25.668Z,14.32
2023-06-29T03:34:25.622Z,14.33
2023-06-29T03:35:25.638Z,14.34
2023-06-29T03:36:25.682Z,14.35
2023-06-29T03:38:25.653Z,14.38
2023-06-29T03:39:25.628Z,14.41
2023-06-29T03:40:25.633Z,14.42
2023-06-29T03:41:25.720Z,14.38
2023-06-29T03:43:25.632Z,14.33
2023-06-29T03:44:25.634Z,14.30
2023-06-29T03:45:25.696Z,14.29
2023-06-29T03:46:25.666Z,14.30
2023-06-29T03:48:25.800Z,14.29
2023-06-29T03:49:25.672Z,14.28
2023-06-29T03:50:25.684Z,14.28
2023-06-29T03:51:25.692Z,14.28
2023-06-29T03:54:25.669Z,14.33
2023-06-29T03:55:25.667Z,14.34
2023-06-29T03:56:25.654Z,14.34
2023-06-29T03:57:25.689Z,14.31
2023-06-29T04:00:25.688Z,14.33
2023-06-29T04:01:25.710Z,14.34
2023-06-29T04:02:25.665Z,14.35
2023-06-29T04:03:25.764Z,14.35
2023-06-29T04:06:25.670Z,14.32
2023-06-29T04:07:25.696Z,14.33
2023-06-29T04:08:25.677Z,14.35
2023-06-29T04:09:25.675Z,14.36
2023-06-29T04:12:25.679Z,14.42
2023-06-29T04:13:25.757Z,14.45
2023-06-29T04:14:25.488Z,14.46
2023-06-29T04:15:25.706Z,14.49
2023-06-29T04:17:25.722Z,14.55
2023-06-29T04:18:25.735Z,14.55
2023-06-29T04:19:25.691Z,14.56
2023-06-29T04:20:25.682Z,14.57
2023-06-29T04:22:25.695Z,14.61
2023-06-29T04:23:25.726Z,14.61
2023-06-29T04:24:25.687Z,14.63
2023-06-29T04:25:25.701Z,14.67
2023-06-29T04:28:25.680Z,14.79
2023-06-29T04:29:25.514Z,14.84
2023-06-29T04:30:25.759Z,14.87
2023-06-29T04:32:25.737Z,14.91
2023-06-29T04:33:25.689Z,14.94
2023-06-29T04:34:25.697Z,14.95
2023-06-29T04:35:25.702Z,14.96
2023-06-29T04:37:25.695Z,15.03
2023-06-29T04:38:25.715Z,15.04
2023-06-29T04:39:25.732Z,15.05
2023-06-29T04:40:25.629Z,15.08
2023-06-29T04:43:25.527Z,15.18
2023-06-29T04:44:25.732Z,15.21
2023-06-29T04:45:25.705Z,15.25
2023-06-29T04:46:25.756Z,15.28
2023-06-29T04:48:25.716Z,15.33
2023-06-29T04:49:25.544Z,15.35
2023-06-29T04:50:25.749Z,15.37
2023-06-29T04:51:25.745Z,15.39
2023-06-29T04:53:25.702Z,15.42
2023-06-29T04:54:25.549Z,15.45
2023-06-29T04:55:25.758Z,15.50
2023-06-29T04:56:25.716Z,15.53
2023-06-29T04:58:25.776Z,15.63
2023-06-29T04:59:25.787Z,15.68
2023-06-29T05:00:25.605Z,15.72
2023-06-29T05:01:25.860Z,15.78
2023-06-29T05:04:25.771Z,15.96
2023-06-29T05:05:25.760Z,16.00
2023-06-29T05:06:25.697Z,16.07
2023-06-29T05:09:25.796Z,16.27
2023-06-29T05:10:25.792Z,16.33
2023-06-29T05:11:25.781Z,16.37
2023-06-29T05:12:25.772Z,16.43
2023-06-29T05:15:25.778Z,16.58
2023-06-29T05:16:25.891Z,16.64
2023-06-29T05:17:25.625Z,16.69
2023-06-29T05:18:25.799Z,16.77
2023-06-29T05:20:25.753Z,16.88
2023-06-29T05:21:25.830Z,16.95
2023-06-29T05:22:25.764Z,17.03
2023-06-29T05:23:25.809Z,17.07
2023-06-29T05:25:25.757Z,17.19
2023-06-29T05:26:25.649Z,17.24
2023-06-29T05:27:25.821Z,17.30
2023-06-29T05:28:25.741Z,17.35
2023-06-29T05:31:25.821Z,17.57
2023-06-29T05:32:25.642Z,17.65
2023-06-29T05:33:25.783Z,17.73
2023-06-29T05:34:25.737Z,17.78
2023-06-29T05:36:25.822Z,17.95
2023-06-29T05:37:25.766Z,18.02
2023-06-29T05:38:25.781Z,18.08
2023-06-29T05:39:25.776Z,18.15
2023-06-29T05:41:25.823Z,18.28
2023-06-29T05:42:25.843Z,18.35
2023-06-29T05:43:25.819Z,18.43
2023-06-29T05:44:25.811Z,18.51
2023-06-29T05:46:26.005Z,18.68
2023-06-29T05:47:25.798Z,18.76
2023-06-29T05:48:25.832Z,18.82
2023-06-29T05:49:25.789Z,18.88
2023-06-29T05:51:25.790Z,19.01
2023-06-29T05:52:25.796Z,19.07
2023-06-29T05:53:25.763Z,19.11
2023-06-29T05:54:25.782Z,19.15
2023-06-29T05:56:25.840Z,19.21
2023-06-29T05:57:25.790Z,19.23
2023-06-29T05:58:25.601Z,19.22
2023-06-29T05:59:25.795Z,19.23
2023-06-29T06:02:25.887Z,19.08
2023-06-29T06:03:25.899Z,19.07
2023-06-29T06:04:25.877Z,19.08
2023-06-29T06:05:25.841Z,19.08
2023-06-29T06:07:25.876Z,19.11
2023-06-29T06:08:25.836Z,19.13
2023-06-29T06:09:25.835Z,19.16
2023-06-29T06:10:25.816Z,19.19
2023-06-29T06:12:25.807Z,19.19
2023-06-29T06:13:25.856Z,19.23
2023-06-29T06:14:25.857Z,19.26
2023-06-29T06:15:25.816Z,19.31
2023-06-29T06:18:25.868Z,19.48
2023-06-29T06:19:25.888Z,19.53
2023-06-29T06:20:25.838Z,19.59
2023-06-29T06:21:25.815Z,19.64
2023-06-29T06:24:25.843Z,19.72
2023-06-29T06:25:25.854Z,19.75
2023-06-29T06:26:25.859Z,19.81
2023-06-29T06:27:25.876Z,19.84
2023-06-29T06:30:25.881Z,19.96
2023-06-29T06:31:33.404Z,20.01
2023-06-29T06:32:25.919Z,20.04
2023-06-29T06:33:25.888Z,20.11
2023-06-29T06:35:25.798Z,20.25
2023-06-29T06:36:25.879Z,20.35
2023-06-29T06:37:25.884Z,20.42
2023-06-29T06:38:34.407Z,20.51
2023-06-29T06:40:25.849Z,20.68
2023-06-29T06:41:25.842Z,20.76
2023-06-29T06:42:25.862Z,20.85
2023-06-29T06:43:25.889Z,20.94
2023-06-29T06:46:25.891Z,21.23
2023-06-29T06:47:25.861Z,21.30
2023-06-29T06:48:25.839Z,21.39
2023-06-29T06:50:25.922Z,21.60
2023-06-29T06:51:25.892Z,21.67
2023-06-29T06:52:25.841Z,21.76
2023-06-29T06:53:25.849Z,21.80
2023-06-29T06:56:25.889Z,21.68
2023-06-29T06:57:25.908Z,21.65
2023-06-29T06:58:25.910Z,21.61
2023-06-29T07:00:25.843Z,21.57
2023-06-29T07:01:25.938Z,21.57
2023-06-29T07:02:25.952Z,21.57
2023-06-29T07:03:25.831Z,21.59
2023-06-29T07:06:25.757Z,21.67
2023-06-29T07:07:25.980Z,21.73
2023-06-29T07:08:25.902Z,21.79
2023-06-29T07:11:25.893Z,21.89
2023-06-29T07:12:25.939Z,21.91
2023-06-29T07:13:25.935Z,21.93
2023-06-29T07:15:25.945Z,21.97
2023-06-29T07:16:25.770Z,21.99
2023-06-29T07:17:25.889Z,21.99
2023-06-29T07:18:25.910Z,21.96
2023-06-29T07:21:26.349Z,21.99
2023-06-29T07:24:25.908Z,22.29
2023-06-29T07:25:25.959Z,22.35
2023-06-29T07:26:25.841Z,22.37
2023-06-29T07:28:25.958Z,22.52
2023-06-29T07:29:26.001Z,22.64
2023-06-29T07:30:25.963Z,22.75
2023-06-29T07:31:25.968Z,22.82
2023-06-29T07:33:25.910Z,22.85
2023-06-29T07:34:25.913Z,22.91
2023-06-29T07:35:25.940Z,23.04
2023-06-29T07:36:25.931Z,23.19
2023-06-29T07:38:25.943Z,23.47
2023-06-29T07:39:25.745Z,23.67
2023-06-29T07:40:25.944Z,23.91
2023-06-29T07:41:25.946Z,24.16
2023-06-29T07:43:25.993Z,24.69
2023-06-29T07:44:25.939Z,24.89
2023-06-29T07:45:25.961Z,25.06
2023-06-29T07:46:25.983Z,25.20
2023-06-29T07:48:26.061Z,25.12
2023-06-29T07:49:26.002Z,24.91
2023-06-29T07:50:25.988Z,24.66
2023-06-29T07:51:25.937Z,24.54
2023-06-29T07:54:11.417Z,24.40
2023-06-29T07:55:11.380Z,24.23
2023-06-29T07:56:11.397Z,24.18
2023-06-29T07:59:11.370Z,24.25
2023-06-29T08:00:11.380Z,24.23
2023-06-29T08:01:11.407Z,24.13
2023-06-29T08:02:11.523Z,23.96
2023-06-29T08:03:11.436Z,23.83
2023-06-29T08:04:11.729Z,23.80
2023-06-29T08:07:11.598Z,23.86
2023-06-29T08:08:11.560Z,23.86
2023-06-29T08:09:11.405Z,23.88
2023-06-29T08:10:11.465Z,23.87
2023-06-29T08:11:11.426Z,23.82
2023-06-29T08:12:11.395Z,23.79
2023-06-29T08:13:11.430Z,23.80
2023-06-29T08:14:11.436Z,23.81
2023-06-29T08:15:11.397Z,23.86
2023-06-29T08:16:11.425Z,23.92
2023-06-29T08:17:11.460Z,23.96
2023-06-29T08:18:11.456Z,23.97
2023-06-29T08:19:11.450Z,24.01
2023-06-29T08:20:11.428Z,24.02
2023-06-29T08:21:11.412Z,23.96
2023-06-29T08:22:11.479Z,23.92
2023-06-29T08:23:11.440Z,23.92
2023-06-29T08:24:11.444Z,23.95
2023-06-29T08:25:11.409Z,23.95
2023-06-29T08:26:11.411Z,23.93
2023-06-29T08:27:11.430Z,23.95
2023-06-29T08:28:11.447Z,23.93
2023-06-29T08:29:11.438Z,23.89
2023-06-29T08:30:11.423Z,23.84
2023-06-29T08:31:11.478Z,23.83
2023-06-29T08:32:11.534Z,23.85
2023-06-29T08:33:11.652Z,23.83
2023-06-29T08:34:11.671Z,23.78
2023-06-29T08:35:11.623Z,23.69
2023-06-29T08:36:11.621Z,23.71
2023-06-29T08:37:11.698Z,23.77
2023-06-29T08:38:11.667Z,23.88
2023-06-29T08:39:11.714Z,23.95
2023-06-29T08:40:11.661Z,23.99
2023-06-29T08:41:11.718Z,24.01
2023-06-29T08:42:11.680Z,24.04
2023-06-29T08:43:11.714Z,24.11
2023-06-29T08:44:11.707Z,24.21
2023-06-29T08:45:11.719Z,24.34
2023-06-29T08:46:11.903Z,24.48
2023-06-29T08:47:11.730Z,24.64
2023-06-29T08:48:11.784Z,24.75
2023-06-29T08:49:11.780Z,24.85
2023-06-29T08:50:11.800Z,24.92
2023-06-29T08:51:11.833Z,24.95
2023-06-29T08:52:11.803Z,24.91
2023-06-29T08:53:11.898Z,24.90
2023-06-29T08:54:11.838Z,24.94
2023-06-29T08:55:11.870Z,24.93
2023-06-29T08:56:11.872Z,24.94
2023-06-29T08:57:11.889Z,24.98
2023-06-29T08:58:11.924Z,24.99
2023-06-29T08:59:11.930Z,25.05
2023-06-29T09:00:11.937Z,25.13
2023-06-29T09:01:12.001Z,25.21
2023-06-29T09:02:12.047Z,25.25
2023-06-29T09:03:12.312Z,25.32
2023-06-29T09:04:12.006Z,25.35
2023-06-29T09:05:11.980Z,25.38
2023-06-29T09:06:12.002Z,25.44
2023-06-29T09:07:12.105Z,25.51
2023-06-29T09:08:12.104Z,25.56
2023-06-29T09:09:12.037Z,25.59
2023-06-29T09:10:12.056Z,25.63
2023-06-29T09:11:12.049Z,25.68
2023-06-29T09:12:12.055Z,25.72
2023-06-29T09:13:12.081Z,25.71
2023-06-29T09:14:12.116Z,25.60
2023-06-29T09:15:12.107Z,25.42
2023-06-29T09:16:12.175Z,25.32
2023-06-29T09:17:12.148Z,25.29
2023-06-29T09:18:12.193Z,25.29
2023-06-29T09:19:12.140Z,25.23
2023-06-29T09:20:12.166Z,25.24
2023-06-29T09:21:12.160Z,25.17
2023-06-29T09:22:12.186Z,24.90
2023-06-29T09:23:12.206Z,24.78
2023-06-29T09:24:12.248Z,24.79
2023-06-29T09:25:19.750Z,24.94
2023-06-29T09:26:12.277Z,25.13
2023-06-29T09:27:12.218Z,25.33
2023-06-29T09:28:12.252Z,25.49
2023-06-29T09:29:12.247Z,25.57
2023-06-29T09:30:12.251Z,25.58
2023-06-29T09:31:21.381Z,25.53
2023-06-29T09:32:12.239Z,25.54
2023-06-29T09:33:12.267Z,25.62
2023-06-29T09:34:12.257Z,25.76
2023-06-29T09:35:12.254Z,25.91
2023-06-29T09:36:12.233Z,26.03
2023-06-29T09:37:12.253Z,26.17
2023-06-29T09:38:12.291Z,26.28
2023-06-29T09:39:12.271Z,26.36
2023-06-29T09:40:12.245Z,26.37
2023-06-29T09:41:14.390Z,26.39
2023-06-29T09:42:12.291Z,26.40
2023-06-29T09:43:12.249Z,26.34
2023-06-29T09:44:12.292Z,26.31
2023-06-29T09:45:12.257Z,26.34
2023-06-29T09:46:12.275Z,26.42
2023-06-29T09:49:12.422Z,26.61
2023-06-29T09:50:12.378Z,26.63
2023-06-29T09:51:12.383Z,26.66
2023-06-29T09:52:12.289Z,26.78
2023-06-29T09:53:12.289Z,26.91
2023-06-29T09:54:12.251Z,27.05
2023-06-29T09:55:12.281Z,27.09
2023-06-29T09:56:12.295Z,27.16
2023-06-29T09:57:12.291Z,27.23
2023-06-29T09:58:12.280Z,27.17
2023-06-29T09:59:12.274Z,27.07
2023-06-29T10:00:12.295Z,27.00
2023-06-29T10:01:12.358Z,26.93
2023-06-29T10:02:12.355Z,26.87
2023-06-29T10:03:12.362Z,26.75
2023-06-29T10:04:12.296Z,26.56
2023-06-29T10:05:12.298Z,26.36
2023-06-29T10:06:12.292Z,26.20
2023-06-29T10:07:12.328Z,26.07
2023-06-29T10:08:12.268Z,25.98
2023-06-29T10:09:12.283Z,25.86
2023-06-29T10:10:12.286Z,25.75
2023-06-29T10:11:12.277Z,25.69
2023-06-29T10:12:12.299Z,25.67
2023-06-29T10:13:12.311Z,25.66
2023-06-29T10:14:12.310Z,25.63
2023-06-29T10:15:12.850Z,25.59
2023-06-29T10:16:12.282Z,25.53
2023-06-29T10:17:14.717Z,25.41
2023-06-29T10:18:12.319Z,25.26
2023-06-29T10:19:12.296Z,25.14
2023-06-29T10:20:12.368Z,25.08
2023-06-29T10:21:12.331Z,25.04
2023-06-29T10:22:12.310Z,25.05
2023-06-29T10:23:12.292Z,25.16
2023-06-29T10:24:12.300Z,25.26
2023-06-29T10:25:12.326Z,25.30
2023-06-29T10:26:12.309Z,25.32
2023-06-29T10:27:12.362Z,25.33
2023-06-29T10:28:12.315Z,25.37
2023-06-29T10:29:12.317Z,25.42
2023-06-29T10:30:12.327Z,25.48
2023-06-29T10:31:12.368Z,25.51
2023-06-29T10:32:12.342Z,25.49
2023-06-29T10:33:12.382Z,25.48
2023-06-29T10:34:12.320Z,25.49
2023-06-29T10:35:12.319Z,25.48
2023-06-29T10:36:12.414Z,25.46
2023-06-29T10:37:12.365Z,25.41
2023-06-29T10:38:12.340Z,25.33
2023-06-29T10:39:12.347Z,25.27
2023-06-29T10:40:12.339Z,25.25
2023-06-29T10:41:12.330Z,25.21
2023-06-29T10:42:12.336Z,25.20
2023-06-29T10:43:12.328Z,25.19
2023-06-29T10:44:12.325Z,25.16
2023-06-29T10:45:12.349Z,25.15
2023-06-29T10:46:12.385Z,25.08
2023-06-29T10:47:12.362Z,25.05
2023-06-29T10:48:15.170Z,25.01
2023-06-29T10:49:12.349Z,24.91
2023-06-29T10:50:12.364Z,24.87
2023-06-29T10:51:12.360Z,24.88
2023-06-29T10:52:12.368Z,24.89
2023-06-29T10:53:12.342Z,24.86
2023-06-29T10:54:12.386Z,24.88
2023-06-29T10:55:12.338Z,24.92
2023-06-29T10:56:12.346Z,24.96
2023-06-29T10:57:12.368Z,25.00
2023-06-29T10:58:12.372Z,25.04
2023-06-29T10:59:12.351Z,25.03
2023-06-29T11:00:14.270Z,25.05
2023-06-29T11:01:12.353Z,25.07
2023-06-29T11:02:12.437Z,25.10
2023-06-29T11:03:12.468Z,25.12
2023-06-29T11:04:12.413Z,25.17
2023-06-29T11:05:12.361Z,25.16
2023-06-29T11:07:12.392Z,25.00
2023-06-29T11:08:12.379Z,24.86
2023-06-29T11:09:12.411Z,24.74
2023-06-29T11:10:12.377Z,24.63
2023-06-29T11:11:12.359Z,24.58
2023-06-29T11:12:15.437Z,24.53
2023-06-29T11:13:12.379Z,24.53
2023-06-29T11:14:12.411Z,24.56
2023-06-29T11:15:20.165Z,24.62
2023-06-29T11:16:12.383Z,24.64
2023-06-29T11:17:12.365Z,24.70
2023-06-29T11:18:12.403Z,24.81
2023-06-29T11:19:13.437Z,24.90
2023-06-29T11:20:12.391Z,24.94
2023-06-29T11:21:12.400Z,25.01
2023-06-29T11:22:12.375Z,25.09
2023-06-29T11:23:12.397Z,25.16
2023-06-29T11:24:12.398Z,25.16
2023-06-29T11:25:12.404Z,25.13
2023-06-29T11:26:12.382Z,25.11
2023-06-29T11:27:12.389Z,25.14
2023-06-29T11:28:12.390Z,25.08
2023-06-29T11:29:12.409Z,24.96
2023-06-29T11:30:12.423Z,24.83
2023-06-29T11:31:12.524Z,24.69
2023-06-29T11:32:12.644Z,24.65
2023-06-29T11:34:12.405Z,24.58
2023-06-29T11:35:12.437Z,24.54
2023-06-29T11:36:12.424Z,24.52
2023-06-29T11:37:16.000Z,24.46
2023-06-29T11:38:12.538Z,24.43
2023-06-29T11:39:12.428Z,24.43
2023-06-29T11:40:12.409Z,24.44
2023-06-29T11:41:12.696Z,24.47
2023-06-29T11:42:12.438Z,24.52
2023-06-29T11:43:12.426Z,24.55
2023-06-29T11:44:15.029Z,24.55
2023-06-29T11:45:12.421Z,24.54
2023-06-29T11:46:12.474Z,24.53
2023-06-29T11:47:32.119Z,24.53
2023-06-29T11:48:12.470Z,24.50
2023-06-29T11:49:12.419Z,24.46
2023-06-29T11:50:12.445Z,24.45
2023-06-29T11:51:12.480Z,24.46
2023-06-29T11:52:12.457Z,24.45
2023-06-29T11:53:12.819Z,24.45
2023-06-29T11:54:12.981Z,24.48
2023-06-29T11:55:13.004Z,24.48
2023-06-29T11:56:13.000Z,24.50
2023-06-29T11:57:13.020Z,24.47
2023-06-29T11:58:13.042Z,24.43
2023-06-29T11:59:13.041Z,24.34
2023-06-29T12:00:13.072Z,24.25
2023-06-29T12:01:13.079Z,24.15
2023-06-29T12:02:13.111Z,24.08
2023-06-29T12:03:13.259Z,24.04
2023-06-29T12:04:13.171Z,23.98
2023-06-29T12:05:13.177Z,23.91
2023-06-29T12:06:13.150Z,23.86
2023-06-29T12:07:13.215Z,23.81
2023-06-29T12:08:13.287Z,23.72
2023-06-29T12:09:13.224Z,23.65
2023-06-29T12:10:13.186Z,23.60
2023-06-29T12:11:13.221Z,23.56
2023-06-29T12:12:13.223Z,23.54
2023-06-29T12:13:13.193Z,23.53
2023-06-29T12:14:13.235Z,23.54
2023-06-29T12:15:13.232Z,23.59
2023-06-29T12:18:13.889Z,23.75
2023-06-29T12:19:13.391Z,23.77
2023-06-29T12:20:13.535Z,23.82
2023-06-29T12:21:13.389Z,23.88
2023-06-29T12:22:13.562Z,23.92
2023-06-29T12:23:13.268Z,23.93
2023-06-29T12:24:13.279Z,23.95
2023-06-29T12:25:13.285Z,23.98
2023-06-29T12:26:13.274Z,24.01
2023-06-29T12:27:13.277Z,24.02
2023-06-29T12:28:13.262Z,24.05
2023-06-29T12:29:13.266Z,24.05
2023-06-29T12:30:13.280Z,24.01
2023-06-29T12:31:13.328Z,24.00
2023-06-29T12:32:13.323Z,24.01
2023-06-29T12:33:13.322Z,24.02
2023-06-29T12:34:13.335Z,24.09
2023-06-29T12:35:13.368Z,24.22
2023-06-29T12:36:13.379Z,24.29
2023-06-29T12:37:13.393Z,24.27
2023-06-29T12:38:13.382Z,24.22
2023-06-29T12:39:13.400Z,24.22
2023-06-29T12:40:13.429Z,24.30
2023-06-29T12:41:13.412Z,24.42
2023-06-29T12:42:13.467Z,24.49
2023-06-29T12:43:13.489Z,24.43
2023-06-29T12:44:13.456Z,24.29
2023-06-29T12:45:13.508Z,24.14
2023-06-29T12:46:13.500Z,24.00
2023-06-29T12:47:13.552Z,23.92
2023-06-29T12:48:13.571Z,23.90
2023-06-29T12:49:13.544Z,23.91
2023-06-29T12:50:13.525Z,24.00
2023-06-29T12:51:13.547Z,24.12
2023-06-29T12:52:13.541Z,24.18
2023-06-29T12:53:13.585Z,24.24
2023-06-29T12:54:13.604Z,24.21
2023-06-29T12:55:13.590Z,24.18
2023-06-29T12:56:13.688Z,24.24
2023-06-29T12:57:13.640Z,24.35
2023-06-29T12:58:13.642Z,24.47
2023-06-29T12:59:13.669Z,24.57
2023-06-29T13:00:13.764Z,24.63
2023-06-29T13:01:13.677Z,24.59
2023-06-29T13:02:13.802Z,24.52
2023-06-29T13:03:13.799Z,24.44
2023-06-29T13:04:13.810Z,24.37
2023-06-29T13:05:13.765Z,24.38
2023-06-29T13:06:13.765Z,24.42
2023-06-29T13:07:13.808Z,24.38
2023-06-29T13:08:13.756Z,24.33
2023-06-29T13:09:13.774Z,24.31
2023-06-29T13:10:13.829Z,24.28
2023-06-29T13:11:13.799Z,24.23
2023-06-29T13:12:13.809Z,24.22
2023-06-29T13:13:13.942Z,24.21
2023-06-29T13:14:13.852Z,24.15
2023-06-29T13:15:13.890Z,24.13
2023-06-29T13:16:13.900Z,24.15
2023-06-29T13:17:13.938Z,24.19
2023-06-29T13:18:13.901Z,24.24
2023-06-29T13:19:13.902Z,24.27
2023-06-29T13:20:13.896Z,24.32
2023-06-29T13:21:13.934Z,24.32
2023-06-29T13:22:13.946Z,24.35
2023-06-29T13:23:13.959Z,24.33
2023-06-29T13:24:13.985Z,24.30
2023-06-29T13:25:13.972Z,24.29
2023-06-29T13:26:13.988Z,24.28
2023-06-29T13:27:14.036Z,24.28
2023-06-29T13:28:13.985Z,24.21
2023-06-29T13:29:14.069Z,24.08
2023-06-29T13:30:14.064Z,24.05
2023-06-29T13:31:14.112Z,24.05
2023-06-29T13:32:14.090Z,24.11
2023-06-29T13:33:14.078Z,24.13
2023-06-29T13:34:14.064Z,24.16
2023-06-29T13:35:14.152Z,24.21
2023-06-29T13:36:14.097Z,24.23
2023-06-29T13:37:14.122Z,24.23
2023-06-29T13:38:14.132Z,24.26
2023-06-29T13:39:14.143Z,24.28
2023-06-29T13:40:14.169Z,24.27
2023-06-29T13:41:14.174Z,24.28
2023-06-29T13:42:14.224Z,24.27
2023-06-29T13:43:14.201Z,24.27
2023-06-29T13:44:14.229Z,24.23
2023-06-29T13:45:14.209Z,24.13
2023-06-29T13:46:14.229Z,24.06
2023-06-29T13:47:14.266Z,24.01
2023-06-29T13:48:14.449Z,23.97
2023-06-29T13:49:14.272Z,23.93
2023-06-29T13:50:16.504Z,23.93
2023-06-29T13:51:14.283Z,23.94
2023-06-29T13:52:14.309Z,23.94
2023-06-29T13:53:14.325Z,23.90
2023-06-29T13:54:14.278Z,23.87
2023-06-29T13:55:14.294Z,23.86
2023-06-29T13:56:14.317Z,23.83
2023-06-29T13:57:14.288Z,23.79
2023-06-29T13:58:14.429Z,23.78
2023-06-29T13:59:14.282Z,23.77
2023-06-29T14:00:14.280Z,23.77
2023-06-29T14:01:14.324Z,23.78
2023-06-29T14:02:14.415Z,23.77
2023-06-29T14:03:14.383Z,23.73
2023-06-29T14:04:14.467Z,23.72
2023-06-29T14:05:14.366Z,23.73
2023-06-29T14:06:14.306Z,23.73
2023-06-29T14:07:14.342Z,23.71
2023-06-29T14:08:14.302Z,23.70
2023-06-29T14:09:14.317Z,23.71
2023-06-29T14:10:14.329Z,23.73
2023-06-29T14:11:14.308Z,23.76
2023-06-29T14:12:14.303Z,23.80
2023-06-29T14:13:14.365Z,23.83
2023-06-29T14:14:14.302Z,23.85
2023-06-29T14:15:14.357Z,23.88
2023-06-29T14:16:14.344Z,23.89
2023-06-29T14:17:14.510Z,23.93
2023-06-29T14:18:14.479Z,23.98
2023-06-29T14:19:14.328Z,24.02
2023-06-29T14:20:14.365Z,24.07
2023-06-29T14:21:14.324Z,24.13
2023-06-29T14:22:14.299Z,24.11
2023-06-29T14:23:14.324Z,24.13
2023-06-29T14:24:14.361Z,24.13
2023-06-29T14:25:14.329Z,24.17
2023-06-29T14:26:14.335Z,24.26
2023-06-29T14:27:14.602Z,24.37
2023-06-29T14:28:14.328Z,24.46
2023-06-29T14:29:14.341Z,24.50
2023-06-29T14:30:14.317Z,24.63
2023-06-29T14:31:14.389Z,24.76
2023-06-29T14:32:14.349Z,24.95
2023-06-29T14:33:27.598Z,25.23
2023-06-29T14:34:14.448Z,25.53
2023-06-29T14:35:14.406Z,25.80
2023-06-29T14:36:14.362Z,26.02
2023-06-29T14:37:14.364Z,26.26
2023-06-29T14:38:15.049Z,26.52
2023-06-29T14:39:14.345Z,26.85
2023-06-29T14:40:14.358Z,27.20
2023-06-29T14:41:14.340Z,27.49
2023-06-29T14:42:14.510Z,27.62
2023-06-29T14:43:14.383Z,27.49
2023-06-29T14:44:14.360Z,27.35
2023-06-29T14:45:14.384Z,27.27
2023-06-29T14:46:14.393Z,27.18
2023-06-29T14:47:14.358Z,27.06
2023-06-29T14:48:14.371Z,26.87
2023-06-29T14:49:14.393Z,26.73
2023-06-29T14:50:14.361Z,26.54
2023-06-29T14:51:14.372Z,26.47
2023-06-29T14:52:14.362Z,26.43
2023-06-29T14:53:14.402Z,26.46
2023-06-29T14:54:14.415Z,26.61
2023-06-29T14:55:14.364Z,26.64
2023-06-29T14:56:14.405Z,26.68
2023-06-29T14:57:14.371Z,26.75
2023-06-29T14:58:14.389Z,26.77
2023-06-29T14:59:14.570Z,26.82
2023-06-29T15:00:14.386Z,26.87
2023-06-29T15:01:14.421Z,26.90
2023-06-29T15:02:14.384Z,26.82
2023-06-29T15:03:14.437Z,26.64
2023-06-29T15:04:14.443Z,26.41
2023-06-29T15:05:14.409Z,26.25
2023-06-29T15:06:14.401Z,26.23
2023-06-29T15:07:14.415Z,26.23